sensor_id;sensor_type;location;lat;lon;timestamp;pressure;altitude;pressure_sealevel;temperature
34023;BMP280;20673;48.980;8.138;2023-07-20T00:02:09;99934.40;;;19.23
34023;BMP280;20673;48.980;8.138;2023-07-20T00:04:35;99928.67;;;19.16
34023;BMP280;20673;48.980;8.138;2023-07-20T00:07:02;99930.79;;;19.07
34023;BMP280;20673;48.980;8.138;2023-07-20T00:09:28;99937.81;;;19.02
34023;BMP280;20673;48.980;8.138;2023-07-20T00:11:54;99935.89;;;18.92
34023;BMP280;20673;48.980;8.138;2023-07-20T00:14:20;99938.06;;;18.86
34023;BMP280;20673;48.980;8.138;2023-07-20T00:16:47;99941.20;;;18.78
34023;BMP280;20673;48.980;8.138;2023-07-20T00:19:15;99941.54;;;18.72
34023;BMP280;20673;48.980;8.138;2023-07-20T00:21:42;99943.33;;;18.66
34023;BMP280;20673;48.980;8.138;2023-07-20T00:24:08;99942.35;;;18.62
34023;BMP280;20673;48.980;8.138;2023-07-20T00:26:35;99941.72;;;18.51
34023;BMP280;20673;48.980;8.138;2023-07-20T00:29:01;99940.83;;;18.46
34023;BMP280;20673;48.980;8.138;2023-07-20T00:31:27;99944.45;;;18.45
34023;BMP280;20673;48.980;8.138;2023-07-20T00:33:55;99944.18;;;18.42
34023;BMP280;20673;48.980;8.138;2023-07-20T00:36:21;99938.75;;;18.35
34023;BMP280;20673;48.980;8.138;2023-07-20T00:38:47;99942.58;;;18.28
34023;BMP280;20673;48.980;8.138;2023-07-20T00:41:13;99936.95;;;18.16
34023;BMP280;20673;48.980;8.138;2023-07-20T00:43:40;99929.86;;;18.05
34023;BMP280;20673;48.980;8.138;2023-07-20T00:46:08;99931.09;;;18.03
34023;BMP280;20673;48.980;8.138;2023-07-20T00:48:35;99933.81;;;17.95
34023;BMP280;20673;48.980;8.138;2023-07-20T00:51:02;99934.75;;;17.92
34023;BMP280;20673;48.980;8.138;2023-07-20T00:53:28;99930.81;;;17.83
34023;BMP280;20673;48.980;8.138;2023-07-20T00:55:55;99927.97;;;17.76
34023;BMP280;20673;48.980;8.138;2023-07-20T00:58:22;99929.37;;;17.72
34023;BMP280;20673;48.980;8.138;2023-07-20T01:00:49;99932.86;;;17.70
34023;BMP280;20673;48.980;8.138;2023-07-20T01:03:15;99936.10;;;17.61
34023;BMP280;20673;48.980;8.138;2023-07-20T01:05:56;99931.76;;;17.56
34023;BMP280;20673;48.980;8.138;2023-07-20T01:09:11;99939.26;;;17.44
34023;BMP280;20673;48.980;8.138;2023-07-20T01:14:08;99939.54;;;17.14
34023;BMP280;20673;48.980;8.138;2023-07-20T01:16:35;99943.75;;;17.06
34023;BMP280;20673;48.980;8.138;2023-07-20T01:19:01;99938.23;;;16.97
34023;BMP280;20673;48.980;8.138;2023-07-20T01:21:40;99935.75;;;16.92
34023;BMP280;20673;48.980;8.138;2023-07-20T01:33:38;99940.83;;;16.63
34023;BMP280;20673;48.980;8.138;2023-07-20T01:36:07;99943.37;;;16.59
34023;BMP280;20673;48.980;8.138;2023-07-20T01:38:36;99940.04;;;16.57
34023;BMP280;20673;48.980;8.138;2023-07-20T01:41:03;99939.03;;;16.51
34023;BMP280;20673;48.980;8.138;2023-07-20T01:43:30;99938.53;;;16.48
34023;BMP280;20673;48.980;8.138;2023-07-20T01:45:56;99939.75;;;16.44
34023;BMP280;20673;48.980;8.138;2023-07-20T01:48:22;99936.51;;;16.42
34023;BMP280;20673;48.980;8.138;2023-07-20T01:50:48;99936.84;;;16.36
34023;BMP280;20673;48.980;8.138;2023-07-20T01:53:14;99934.79;;;16.32
34023;BMP280;20673;48.980;8.138;2023-07-20T01:55:41;99939.63;;;16.28
34023;BMP280;20673;48.980;8.138;2023-07-20T01:58:07;99934.97;;;16.29
34023;BMP280;20673;48.980;8.138;2023-07-20T02:00:33;99936.17;;;16.20
34023;BMP280;20673;48.980;8.138;2023-07-20T02:02:59;99936.40;;;16.11
34023;BMP280;20673;48.980;8.138;2023-07-20T02:05:25;99932.90;;;16.05
34023;BMP280;20673;48.980;8.138;2023-07-20T02:07:52;99938.06;;;16.02
34023;BMP280;20673;48.980;8.138;2023-07-20T02:10:18;99932.17;;;15.98
34023;BMP280;20673;48.980;8.138;2023-07-20T02:12:44;99935.72;;;15.92
34023;BMP280;20673;48.980;8.138;2023-07-20T02:15:18;99934.84;;;15.87
34023;BMP280;20673;48.980;8.138;2023-07-20T02:17:49;99932.64;;;15.81
34023;BMP280;20673;48.980;8.138;2023-07-20T02:20:17;99931.22;;;15.78
34023;BMP280;20673;48.980;8.138;2023-07-20T02:22:45;99931.08;;;15.75
34023;BMP280;20673;48.980;8.138;2023-07-20T02:25:12;99930.15;;;15.72
34023;BMP280;20673;48.980;8.138;2023-07-20T02:27:39;99938.90;;;15.71
34023;BMP280;20673;48.980;8.138;2023-07-20T02:30:09;99935.47;;;15.68
34023;BMP280;20673;48.980;8.138;2023-07-20T02:32:38;99940.95;;;15.68
34023;BMP280;20673;48.980;8.138;2023-07-20T02:35:05;99943.29;;;15.65
34023;BMP280;20673;48.980;8.138;2023-07-20T02:37:32;99939.86;;;15.64
34023;BMP280;20673;48.980;8.138;2023-07-20T02:39:58;99941.72;;;15.62
34023;BMP280;20673;48.980;8.138;2023-07-20T02:42:24;99942.54;;;15.59
34023;BMP280;20673;48.980;8.138;2023-07-20T02:44:51;99946.84;;;15.52
34023;BMP280;20673;48.980;8.138;2023-07-20T02:47:18;99944.89;;;15.43
34023;BMP280;20673;48.980;8.138;2023-07-20T02:49:44;99950.48;;;15.38
34023;BMP280;20673;48.980;8.138;2023-07-20T02:52:10;99946.37;;;15.34
34023;BMP280;20673;48.980;8.138;2023-07-20T02:54:36;99955.53;;;15.36
34023;BMP280;20673;48.980;8.138;2023-07-20T02:57:02;99951.56;;;15.29
34023;BMP280;20673;48.980;8.138;2023-07-20T02:59:28;99947.09;;;15.24
34023;BMP280;20673;48.980;8.138;2023-07-20T03:01:55;99949.22;;;15.21
34023;BMP280;20673;48.980;8.138;2023-07-20T03:04:21;99954.00;;;15.18
34023;BMP280;20673;48.980;8.138;2023-07-20T03:06:47;99955.00;;;15.13
34023;BMP280;20673;48.980;8.138;2023-07-20T03:09:13;99956.09;;;15.07
34023;BMP280;20673;48.980;8.138;2023-07-20T03:11:41;99953.78;;;15.04
34023;BMP280;20673;48.980;8.138;2023-07-20T03:14:07;99954.58;;;14.99
34023;BMP280;20673;48.980;8.138;2023-07-20T03:16:33;99954.93;;;14.94
34023;BMP280;20673;48.980;8.138;2023-07-20T03:19:00;99955.06;;;14.94
34023;BMP280;20673;48.980;8.138;2023-07-20T03:21:26;99957.40;;;14.90
34023;BMP280;20673;48.980;8.138;2023-07-20T03:23:52;99956.84;;;14.85
34023;BMP280;20673;48.980;8.138;2023-07-20T03:26:19;99955.64;;;14.84
34023;BMP280;20673;48.980;8.138;2023-07-20T03:28:45;99962.43;;;14.81
34023;BMP280;20673;48.980;8.138;2023-07-20T03:31:12;99962.86;;;14.79
34023;BMP280;20673;48.980;8.138;2023-07-20T03:33:38;99959.59;;;14.80
34023;BMP280;20673;48.980;8.138;2023-07-20T03:36:04;99958.22;;;14.81
34023;BMP280;20673;48.980;8.138;2023-07-20T03:38:31;99959.40;;;14.85
34023;BMP280;20673;48.980;8.138;2023-07-20T03:41:00;99961.65;;;14.84
34023;BMP280;20673;48.980;8.138;2023-07-20T03:43:28;99966.65;;;14.81
34023;BMP280;20673;48.980;8.138;2023-07-20T03:45:54;99965.64;;;14.83
34023;BMP280;20673;48.980;8.138;2023-07-20T03:48:24;99966.62;;;14.81
34023;BMP280;20673;48.980;8.138;2023-07-20T03:50:52;99970.59;;;14.80
34023;BMP280;20673;48.980;8.138;2023-07-20T03:53:19;99970.41;;;14.82
34023;BMP280;20673;48.980;8.138;2023-07-20T03:55:50;99972.40;;;14.80
34023;BMP280;20673;48.980;8.138;2023-07-20T03:58:18;99973.31;;;14.80
34023;BMP280;20673;48.980;8.138;2023-07-20T04:00:49;99974.83;;;14.79
34023;BMP280;20673;48.980;8.138;2023-07-20T04:03:19;99971.68;;;14.80
34023;BMP280;20673;48.980;8.138;2023-07-20T04:05:46;99975.25;;;14.79
34023;BMP280;20673;48.980;8.138;2023-07-20T04:08:12;99975.36;;;14.75
34023;BMP280;20673;48.980;8.138;2023-07-20T04:10:39;99975.90;;;14.73
34023;BMP280;20673;48.980;8.138;2023-07-20T04:13:05;99973.43;;;14.72
34023;BMP280;20673;48.980;8.138;2023-07-20T04:15:31;99969.31;;;14.73
34023;BMP280;20673;48.980;8.138;2023-07-20T04:17:58;99970.59;;;14.74
34023;BMP280;20673;48.980;8.138;2023-07-20T04:20:25;99972.27;;;14.72
34023;BMP280;20673;48.980;8.138;2023-07-20T04:22:51;99973.40;;;14.72
34023;BMP280;20673;48.980;8.138;2023-07-20T04:25:18;99976.21;;;14.72
34023;BMP280;20673;48.980;8.138;2023-07-20T04:27:45;99976.83;;;14.73
34023;BMP280;20673;48.980;8.138;2023-07-20T04:30:12;99978.72;;;14.78
34023;BMP280;20673;48.980;8.138;2023-07-20T04:32:39;99980.17;;;14.82
34023;BMP280;20673;48.980;8.138;2023-07-20T04:35:07;99986.36;;;14.86
34023;BMP280;20673;48.980;8.138;2023-07-20T04:37:34;99982.23;;;14.86
34023;BMP280;20673;48.980;8.138;2023-07-20T04:40:00;99985.26;;;14.89
34023;BMP280;20673;48.980;8.138;2023-07-20T04:42:26;99986.89;;;14.96
34023;BMP280;20673;48.980;8.138;2023-07-20T04:44:52;99988.00;;;15.05
34023;BMP280;20673;48.980;8.138;2023-07-20T04:47:18;99987.31;;;15.08
34023;BMP280;20673;48.980;8.138;2023-07-20T04:49:44;99985.11;;;15.16
34023;BMP280;20673;48.980;8.138;2023-07-20T04:52:10;99980.57;;;15.24
34023;BMP280;20673;48.980;8.138;2023-07-20T04:54:36;99984.73;;;15.33
34023;BMP280;20673;48.980;8.138;2023-07-20T04:57:05;99983.47;;;15.38
34023;BMP280;20673;48.980;8.138;2023-07-20T04:59:33;99983.28;;;15.42
34023;BMP280;20673;48.980;8.138;2023-07-20T05:01:59;99984.75;;;15.52
34023;BMP280;20673;48.980;8.138;2023-07-20T05:04:25;99988.33;;;15.59
34023;BMP280;20673;48.980;8.138;2023-07-20T05:06:51;99990.15;;;15.60
34023;BMP280;20673;48.980;8.138;2023-07-20T05:09:17;99988.79;;;15.67
34023;BMP280;20673;48.980;8.138;2023-07-20T05:11:43;99992.81;;;15.71
34023;BMP280;20673;48.980;8.138;2023-07-20T05:14:10;99996.90;;;15.77
34023;BMP280;20673;48.980;8.138;2023-07-20T05:16:36;99997.92;;;15.85
34023;BMP280;20673;48.980;8.138;2023-07-20T05:19:02;99991.54;;;15.94
34023;BMP280;20673;48.980;8.138;2023-07-20T05:21:29;99992.00;;;16.03
34023;BMP280;20673;48.980;8.138;2023-07-20T05:23:55;99990.39;;;16.14
34023;BMP280;20673;48.980;8.138;2023-07-20T05:26:21;99991.68;;;16.36
34023;BMP280;20673;48.980;8.138;2023-07-20T05:28:47;99993.67;;;16.51
34023;BMP280;20673;48.980;8.138;2023-07-20T05:31:13;99987.26;;;16.70
34023;BMP280;20673;48.980;8.138;2023-07-20T05:33:39;99987.75;;;16.87
34023;BMP280;20673;48.980;8.138;2023-07-20T05:36:05;99987.36;;;17.03
34023;BMP280;20673;48.980;8.138;2023-07-20T05:38:31;99980.47;;;17.15
34023;BMP280;20673;48.980;8.138;2023-07-20T05:41:00;99980.09;;;17.20
34023;BMP280;20673;48.980;8.138;2023-07-20T05:43:29;99983.54;;;17.33
34023;BMP280;20673;48.980;8.138;2023-07-20T05:45:56;99981.90;;;17.41
34023;BMP280;20673;48.980;8.138;2023-07-20T05:48:23;99981.22;;;17.52
34023;BMP280;20673;48.980;8.138;2023-07-20T05:50:49;99978.13;;;17.64
34023;BMP280;20673;48.980;8.138;2023-07-20T05:53:16;99979.90;;;17.76
34023;BMP280;20673;48.980;8.138;2023-07-20T05:55:42;99981.74;;;17.90
34023;BMP280;20673;48.980;8.138;2023-07-20T05:58:08;99977.53;;;18.03
34023;BMP280;20673;48.980;8.138;2023-07-20T06:00:34;99976.84;;;18.15
34023;BMP280;20673;48.980;8.138;2023-07-20T06:03:00;99978.25;;;18.28
34023;BMP280;20673;48.980;8.138;2023-07-20T06:05:26;99983.22;;;18.37
34023;BMP280;20673;48.980;8.138;2023-07-20T06:07:52;99984.04;;;18.53
34023;BMP280;20673;48.980;8.138;2023-07-20T06:10:20;99985.04;;;18.66
34023;BMP280;20673;48.980;8.138;2023-07-20T06:12:46;99985.83;;;18.78
34023;BMP280;20673;48.980;8.138;2023-07-20T06:15:31;99987.29;;;18.91
34023;BMP280;20673;48.980;8.138;2023-07-20T06:17:57;99991.55;;;19.07
34023;BMP280;20673;48.980;8.138;2023-07-20T06:20:24;99993.39;;;19.19
34023;BMP280;20673;48.980;8.138;2023-07-20T06:22:50;99995.98;;;19.26
34023;BMP280;20673;48.980;8.138;2023-07-20T06:25:17;99993.48;;;19.40
34023;BMP280;20673;48.980;8.138;2023-07-20T06:27:43;99993.79;;;19.52
34023;BMP280;20673;48.980;8.138;2023-07-20T06:30:10;99990.67;;;19.57
34023;BMP280;20673;48.980;8.138;2023-07-20T06:32:38;99990.78;;;19.56
34023;BMP280;20673;48.980;8.138;2023-07-20T06:35:05;99988.45;;;19.77
34023;BMP280;20673;48.980;8.138;2023-07-20T06:37:32;99991.76;;;19.86
34023;BMP280;20673;48.980;8.138;2023-07-20T06:39:58;99991.25;;;19.85
34023;BMP280;20673;48.980;8.138;2023-07-20T06:42:24;99992.23;;;19.98
34023;BMP280;20673;48.980;8.138;2023-07-20T06:44:50;99990.93;;;20.11
34023;BMP280;20673;48.980;8.138;2023-07-20T06:47:17;99986.10;;;20.22
34023;BMP280;20673;48.980;8.138;2023-07-20T06:49:43;99987.79;;;20.33
34023;BMP280;20673;48.980;8.138;2023-07-20T06:52:09;99989.18;;;20.42
34023;BMP280;20673;48.980;8.138;2023-07-20T06:54:35;99993.58;;;20.54
34023;BMP280;20673;48.980;8.138;2023-07-20T06:57:01;99988.78;;;20.60
34023;BMP280;20673;48.980;8.138;2023-07-20T06:59:27;99986.75;;;20.67
34023;BMP280;20673;48.980;8.138;2023-07-20T07:01:53;99985.72;;;20.80
34023;BMP280;20673;48.980;8.138;2023-07-20T07:04:19;99981.20;;;20.90
34023;BMP280;20673;48.980;8.138;2023-07-20T07:06:45;99979.78;;;21.04
34023;BMP280;20673;48.980;8.138;2023-07-20T07:09:12;99983.00;;;21.14
34023;BMP280;20673;48.980;8.138;2023-07-20T07:11:38;99983.00;;;21.24
34023;BMP280;20673;48.980;8.138;2023-07-20T07:14:04;99986.89;;;21.29
34023;BMP280;20673;48.980;8.138;2023-07-20T07:16:30;99987.12;;;21.33
34023;BMP280;20673;48.980;8.138;2023-07-20T07:18:56;99990.97;;;21.35
34023;BMP280;20673;48.980;8.138;2023-07-20T07:21:22;99993.20;;;21.41
34023;BMP280;20673;48.980;8.138;2023-07-20T07:23:48;99983.86;;;21.47
34023;BMP280;20673;48.980;8.138;2023-07-20T07:26:15;99981.25;;;21.63
34023;BMP280;20673;48.980;8.138;2023-07-20T07:28:41;99984.45;;;21.66
34023;BMP280;20673;48.980;8.138;2023-07-20T07:31:07;99986.70;;;21.63
34023;BMP280;20673;48.980;8.138;2023-07-20T07:33:33;99986.53;;;21.74
34023;BMP280;20673;48.980;8.138;2023-07-20T07:36:01;99986.61;;;21.79
34023;BMP280;20673;48.980;8.138;2023-07-20T07:38:27;99983.19;;;21.83
34023;BMP280;20673;48.980;8.138;2023-07-20T07:40:53;99983.37;;;21.93
34023;BMP280;20673;48.980;8.138;2023-07-20T07:43:19;99984.29;;;22.07
34023;BMP280;20673;48.980;8.138;2023-07-20T07:45:45;99986.15;;;22.19
34023;BMP280;20673;48.980;8.138;2023-07-20T07:48:11;99988.23;;;22.08
34023;BMP280;20673;48.980;8.138;2023-07-20T07:50:38;99988.69;;;22.05
34023;BMP280;20673;48.980;8.138;2023-07-20T07:53:07;99987.84;;;22.19
34023;BMP280;20673;48.980;8.138;2023-07-20T07:55:35;99985.68;;;22.45
34023;BMP280;20673;48.980;8.138;2023-07-20T07:58:01;99989.12;;;22.42
34023;BMP280;20673;48.980;8.138;2023-07-20T08:00:27;99989.88;;;22.50
34023;BMP280;20673;48.980;8.138;2023-07-20T08:02:53;99988.86;;;22.48
34023;BMP280;20673;48.980;8.138;2023-07-20T08:05:19;99995.57;;;22.50
34023;BMP280;20673;48.980;8.138;2023-07-20T08:07:45;99994.21;;;22.54
34023;BMP280;20673;48.980;8.138;2023-07-20T08:10:12;99986.61;;;22.77
34023;BMP280;20673;48.980;8.138;2023-07-20T08:12:38;99988.75;;;22.87
34023;BMP280;20673;48.980;8.138;2023-07-20T08:15:05;99981.52;;;22.94
34023;BMP280;20673;48.980;8.138;2023-07-20T08:17:31;99984.75;;;23.19
34023;BMP280;20673;48.980;8.138;2023-07-20T08:19:58;99987.23;;;23.19
34023;BMP280;20673;48.980;8.138;2023-07-20T08:22:24;99984.84;;;23.21
34023;BMP280;20673;48.980;8.138;2023-07-20T08:24:50;99987.82;;;23.09
34023;BMP280;20673;48.980;8.138;2023-07-20T08:27:16;99985.04;;;23.20
34023;BMP280;20673;48.980;8.138;2023-07-20T08:29:42;99984.68;;;23.25
34023;BMP280;20673;48.980;8.138;2023-07-20T08:32:08;99994.59;;;23.43
34023;BMP280;20673;48.980;8.138;2023-07-20T08:34:34;99991.72;;;23.56
34023;BMP280;20673;48.980;8.138;2023-07-20T08:37:00;99991.86;;;23.72
34023;BMP280;20673;48.980;8.138;2023-07-20T08:39:27;99987.65;;;23.73
34023;BMP280;20673;48.980;8.138;2023-07-20T08:41:54;99994.00;;;23.93
34023;BMP280;20673;48.980;8.138;2023-07-20T08:44:22;99989.75;;;23.94
34023;BMP280;20673;48.980;8.138;2023-07-20T08:46:49;99984.92;;;23.84
34023;BMP280;20673;48.980;8.138;2023-07-20T08:49:17;99986.39;;;23.86
34023;BMP280;20673;48.980;8.138;2023-07-20T08:51:46;99992.70;;;23.93
34023;BMP280;20673;48.980;8.138;2023-07-20T08:54:14;99992.97;;;24.12
34023;BMP280;20673;48.980;8.138;2023-07-20T08:56:41;99983.34;;;24.60
34023;BMP280;20673;48.980;8.138;2023-07-20T08:59:09;99990.62;;;24.81
34023;BMP280;20673;48.980;8.138;2023-07-20T09:01:36;99986.47;;;24.93
34023;BMP280;20673;48.980;8.138;2023-07-20T09:04:04;99991.13;;;24.79
34023;BMP280;20673;48.980;8.138;2023-07-20T09:06:30;99987.87;;;24.63
34023;BMP280;20673;48.980;8.138;2023-07-20T09:08:57;99984.39;;;24.92
34023;BMP280;20673;48.980;8.138;2023-07-20T09:11:23;99984.16;;;24.99
34023;BMP280;20673;48.980;8.138;2023-07-20T09:14:07;99978.81;;;24.97
34023;BMP280;20673;48.980;8.138;2023-07-20T09:16:52;99972.80;;;25.26
34023;BMP280;20673;48.980;8.138;2023-07-20T09:19:18;99978.11;;;25.49
34023;BMP280;20673;48.980;8.138;2023-07-20T09:21:46;99969.22;;;25.31
34023;BMP280;20673;48.980;8.138;2023-07-20T09:24:14;99973.36;;;25.30
34023;BMP280;20673;48.980;8.138;2023-07-20T09:26:46;99982.37;;;25.68
34023;BMP280;20673;48.980;8.138;2023-07-20T09:29:20;99972.08;;;25.47
34023;BMP280;20673;48.980;8.138;2023-07-20T09:32:03;99969.70;;;25.90
34023;BMP280;20673;48.980;8.138;2023-07-20T09:34:31;99975.36;;;25.71
34023;BMP280;20673;48.980;8.138;2023-07-20T09:37:00;99966.69;;;26.53
34023;BMP280;20673;48.980;8.138;2023-07-20T09:39:27;99969.15;;;26.96
34023;BMP280;20673;48.980;8.138;2023-07-20T09:41:53;99971.84;;;26.57
34023;BMP280;20673;48.980;8.138;2023-07-20T09:44:20;99968.67;;;26.53
34023;BMP280;20673;48.980;8.138;2023-07-20T09:46:48;99970.33;;;26.62
34023;BMP280;20673;48.980;8.138;2023-07-20T09:49:14;99969.76;;;26.53
34023;BMP280;20673;48.980;8.138;2023-07-20T09:51:45;99964.79;;;26.22
34023;BMP280;20673;48.980;8.138;2023-07-20T09:54:13;99974.12;;;26.30
34023;BMP280;20673;48.980;8.138;2023-07-20T09:56:40;99968.44;;;26.63
34023;BMP280;20673;48.980;8.138;2023-07-20T09:59:07;99971.14;;;26.59
34023;BMP280;20673;48.980;8.138;2023-07-20T10:01:34;99971.97;;;26.95
34023;BMP280;20673;48.980;8.138;2023-07-20T10:04:07;99958.42;;;26.73
34023;BMP280;20673;48.980;8.138;2023-07-20T10:06:42;99967.79;;;26.76
34023;BMP280;20673;48.980;8.138;2023-07-20T10:09:10;99952.09;;;27.33
34023;BMP280;20673;48.980;8.138;2023-07-20T10:11:43;99951.96;;;27.07
34023;BMP280;20673;48.980;8.138;2023-07-20T10:14:14;99941.17;;;26.60
34023;BMP280;20673;48.980;8.138;2023-07-20T10:16:51;99940.07;;;26.00
34023;BMP280;20673;48.980;8.138;2023-07-20T10:19:34;99938.50;;;25.35
34023;BMP280;20673;48.980;8.138;2023-07-20T10:22:15;99955.68;;;25.37
34023;BMP280;20673;48.980;8.138;2023-07-20T10:24:47;99954.79;;;26.31
34023;BMP280;20673;48.980;8.138;2023-07-20T10:27:14;99945.11;;;27.36
34023;BMP280;20673;48.980;8.138;2023-07-20T10:29:41;99943.54;;;27.64
34023;BMP280;20673;48.980;8.138;2023-07-20T10:32:09;99940.92;;;28.28
34023;BMP280;20673;48.980;8.138;2023-07-20T10:34:36;99939.23;;;28.58
34023;BMP280;20673;48.980;8.138;2023-07-20T10:37:03;99933.09;;;29.25
34023;BMP280;20673;48.980;8.138;2023-07-20T10:39:32;99929.36;;;29.32
34023;BMP280;20673;48.980;8.138;2023-07-20T10:42:05;99927.49;;;29.29
34023;BMP280;20673;48.980;8.138;2023-07-20T10:44:31;99932.20;;;28.69
34023;BMP280;20673;48.980;8.138;2023-07-20T10:47:03;99934.44;;;29.36
34023;BMP280;20673;48.980;8.138;2023-07-20T10:49:34;99925.78;;;29.22
34023;BMP280;20673;48.980;8.138;2023-07-20T10:52:06;99931.00;;;29.28
34023;BMP280;20673;48.980;8.138;2023-07-20T10:54:34;99934.18;;;29.13
34023;BMP280;20673;48.980;8.138;2023-07-20T10:59:56;99919.21;;;28.94
34023;BMP280;20673;48.980;8.138;2023-07-20T11:02:24;99920.61;;;29.22
34023;BMP280;20673;48.980;8.138;2023-07-20T11:04:50;99913.64;;;28.80
34023;BMP280;20673;48.980;8.138;2023-07-20T11:07:35;99916.29;;;28.75
34023;BMP280;20673;48.980;8.138;2023-07-20T11:09:47;99916.52;;;28.95
34023;BMP280;20673;48.980;8.138;2023-07-20T11:12:17;99911.76;;;29.30
34023;BMP280;20673;48.980;8.138;2023-07-20T11:14:56;99906.69;;;29.08
34023;BMP280;20673;48.980;8.138;2023-07-20T11:17:31;99908.14;;;29.59
34023;BMP280;20673;48.980;8.138;2023-07-20T11:19:59;99903.17;;;29.80
34023;BMP280;20673;48.980;8.138;2023-07-20T11:22:28;99910.84;;;29.42
34023;BMP280;20673;48.980;8.138;2023-07-20T11:24:58;99907.83;;;28.86
34023;BMP280;20673;48.980;8.138;2023-07-20T11:27:24;99903.58;;;28.77
34023;BMP280;20673;48.980;8.138;2023-07-20T11:29:51;99889.38;;;29.00
34023;BMP280;20673;48.980;8.138;2023-07-20T11:32:21;99891.04;;;29.02
34023;BMP280;20673;48.980;8.138;2023-07-20T11:34:48;99881.33;;;28.61
34023;BMP280;20673;48.980;8.138;2023-07-20T11:37:15;99883.75;;;28.94
34023;BMP280;20673;48.980;8.138;2023-07-20T11:39:42;99872.13;;;28.64
34023;BMP280;20673;48.980;8.138;2023-07-20T11:42:08;99881.25;;;28.73
34023;BMP280;20673;48.980;8.138;2023-07-20T11:44:34;99881.36;;;28.40
34023;BMP280;20673;48.980;8.138;2023-07-20T11:47:13;99877.66;;;28.86
34023;BMP280;20673;48.980;8.138;2023-07-20T11:49:42;99873.95;;;29.44
34023;BMP280;20673;48.980;8.138;2023-07-20T11:52:15;99872.48;;;29.09
34023;BMP280;20673;48.980;8.138;2023-07-20T11:54:43;99869.40;;;30.17
34023;BMP280;20673;48.980;8.138;2023-07-20T11:57:20;99867.22;;;30.45
34023;BMP280;20673;48.980;8.138;2023-07-20T11:59:55;99859.00;;;30.25
34023;BMP280;20673;48.980;8.138;2023-07-20T12:02:23;99859.29;;;30.02
34023;BMP280;20673;48.980;8.138;2023-07-20T12:04:54;99859.47;;;29.84
34023;BMP280;20673;48.980;8.138;2023-07-20T12:07:21;99848.37;;;30.23
34023;BMP280;20673;48.980;8.138;2023-07-20T12:10:11;99836.31;;;30.04
34023;BMP280;20673;48.980;8.138;2023-07-20T12:12:43;99850.53;;;29.81
34023;BMP280;20673;48.980;8.138;2023-07-20T12:17:54;99850.19;;;29.78
34023;BMP280;20673;48.980;8.138;2023-07-20T12:20:30;99837.36;;;29.43
34023;BMP280;20673;48.980;8.138;2023-07-20T12:23:11;99840.51;;;29.45
34023;BMP280;20673;48.980;8.138;2023-07-20T12:25:40;99834.39;;;29.14
34023;BMP280;20673;48.980;8.138;2023-07-20T12:28:13;99833.64;;;29.88
34023;BMP280;20673;48.980;8.138;2023-07-20T12:30:41;99830.72;;;30.40
34023;BMP280;20673;48.980;8.138;2023-07-20T12:33:08;99831.13;;;30.14
34023;BMP280;20673;48.980;8.138;2023-07-20T12:35:34;99825.98;;;30.21
34023;BMP280;20673;48.980;8.138;2023-07-20T12:38:01;99829.73;;;30.13
34023;BMP280;20673;48.980;8.138;2023-07-20T12:40:27;99826.18;;;30.33
34023;BMP280;20673;48.980;8.138;2023-07-20T12:42:54;99818.91;;;30.20
34023;BMP280;20673;48.980;8.138;2023-07-20T12:45:20;99816.48;;;29.95
34023;BMP280;20673;48.980;8.138;2023-07-20T12:47:48;99817.95;;;30.50
34023;BMP280;20673;48.980;8.138;2023-07-20T12:50:14;99813.36;;;30.37
34023;BMP280;20673;48.980;8.138;2023-07-20T12:52:40;99809.45;;;30.59
34023;BMP280;20673;48.980;8.138;2023-07-20T12:55:09;99814.24;;;30.39
34023;BMP280;20673;48.980;8.138;2023-07-20T12:57:37;99802.12;;;30.57
34023;BMP280;20673;48.980;8.138;2023-07-20T13:00:06;99808.67;;;30.24
34023;BMP280;20673;48.980;8.138;2023-07-20T13:02:34;99810.36;;;30.30
34023;BMP280;20673;48.980;8.138;2023-07-20T13:05:00;99802.42;;;30.23
34023;BMP280;20673;48.980;8.138;2023-07-20T13:07:36;99801.75;;;30.10
34023;BMP280;20673;48.980;8.138;2023-07-20T13:10:04;99790.20;;;30.63
34023;BMP280;20673;48.980;8.138;2023-07-20T13:12:33;99796.43;;;30.51
34023;BMP280;20673;48.980;8.138;2023-07-20T13:15:02;99795.28;;;30.38
34023;BMP280;20673;48.980;8.138;2023-07-20T13:17:30;99787.93;;;30.14
34023;BMP280;20673;48.980;8.138;2023-07-20T13:19:56;99786.23;;;30.63
34023;BMP280;20673;48.980;8.138;2023-07-20T13:22:22;99789.00;;;30.61
34023;BMP280;20673;48.980;8.138;2023-07-20T13:24:49;99788.19;;;30.52
34023;BMP280;20673;48.980;8.138;2023-07-20T13:27:20;99782.23;;;30.55
34023;BMP280;20673;48.980;8.138;2023-07-20T13:29:46;99783.59;;;30.36
34023;BMP280;20673;48.980;8.138;2023-07-20T13:32:15;99775.63;;;30.68
34023;BMP280;20673;48.980;8.138;2023-07-20T13:34:44;99770.84;;;30.65
34023;BMP280;20673;48.980;8.138;2023-07-20T13:37:11;99765.39;;;30.61
34023;BMP280;20673;48.980;8.138;2023-07-20T13:39:38;99766.64;;;30.80
34023;BMP280;20673;48.980;8.138;2023-07-20T13:42:06;99765.27;;;30.53
34023;BMP280;20673;48.980;8.138;2023-07-20T13:44:32;99768.37;;;30.52
34023;BMP280;20673;48.980;8.138;2023-07-20T13:46:59;99769.97;;;30.53
34023;BMP280;20673;48.980;8.138;2023-07-20T13:49:25;99764.79;;;30.54
34023;BMP280;20673;48.980;8.138;2023-07-20T13:51:51;99763.93;;;30.84
34023;BMP280;20673;48.980;8.138;2023-07-20T13:54:17;99757.76;;;31.44
34023;BMP280;20673;48.980;8.138;2023-07-20T13:56:43;99754.46;;;30.54
34023;BMP280;20673;48.980;8.138;2023-07-20T13:59:10;99751.00;;;30.90
34023;BMP280;20673;48.980;8.138;2023-07-20T14:01:36;99745.95;;;30.66
34023;BMP280;20673;48.980;8.138;2023-07-20T14:04:03;99746.11;;;30.64
34023;BMP280;20673;48.980;8.138;2023-07-20T14:06:32;99758.18;;;30.15
34023;BMP280;20673;48.980;8.138;2023-07-20T14:08:59;99738.04;;;30.74
34023;BMP280;20673;48.980;8.138;2023-07-20T14:11:26;99738.12;;;31.00
34023;BMP280;20673;48.980;8.138;2023-07-20T14:13:53;99733.74;;;31.18
34023;BMP280;20673;48.980;8.138;2023-07-20T14:16:21;99734.84;;;31.22
34023;BMP280;20673;48.980;8.138;2023-07-20T14:18:48;99729.11;;;31.13
34023;BMP280;20673;48.980;8.138;2023-07-20T14:21:16;99730.15;;;30.93
34023;BMP280;20673;48.980;8.138;2023-07-20T14:23:46;99727.73;;;30.77
34023;BMP280;20673;48.980;8.138;2023-07-20T14:26:12;99719.81;;;30.97
34023;BMP280;20673;48.980;8.138;2023-07-20T14:28:39;99724.93;;;31.22
34023;BMP280;20673;48.980;8.138;2023-07-20T14:31:05;99726.28;;;31.18